Syracuse Hancock International Airport
KSYR : rendu visible

Aérodrome :











RETROUVEZ-NOUS SUR...

 
LOGIN :

S'inscrire | Disclaimer

   EN    FR    IT 

 









Légende :    VFR   VFR Marginal   IFR   IFR Intensif   IFR Très Intensif
Visi : 
Plafond : 
>= 8 km
>= 3000ft
5 à 8 km
1000 à 3000 ft
1500m à 5 km
500 à 1000 ft
800 à 1500m
200 à 500 ft
< 800m
< 200 ft
Symboles :   Orages  Brouillard  Fortes neiges  Fortes précipitations  Vent > 20 kt






- Altitude de l'aérodrome : 421 ft
- Code IATA : SYR


KSYR - Syracuse Hancock International

DERNIER METAR :
  • 251554Z 20011KT 10SM FEW050 FEW080 SCT160 23/16 A3012 RMK AO2 SLP194 T02280156 $

METARs EXPIRÉS :
  • 251454Z 14007KT 10SM SCT060 BKN080 21/16 A3012 RMK AO2 SLP193 60014 T02110156 55009 $
  • 251354Z 16013KT 10SM SCT065 BKN080 20/15 A3010 RMK AO2 SLP189 T02000150 $

TAF KSYR
Valide du 25 à 12h jusqu'au 26 à 12h UTC


251137Z 2512/2612 15007KT P6SM BKN060
TEMPO 2512/2513 2SM TSRA BR OVC025CB
FM251500 18007KT P6SM BKN040
FM260000 16004KT P6SM SCT050
FIR KZBW / Amérique du Nord



MET'MAP, la Météo Aéronautique d'un coup d'oeil ! - Copyright ORBIFLY Décembre 2007 - Disclaimer

ORBIFLY MET'MAP TEAM :

Programmation & Développement : Alexandra Zaïnal
Sur une idée originale de : Baudouin d'Aumeries
Assistance à la programmation : Marc-Olivier Méhu
Soutien technique & logistique : Manuel Goepfert

Contact : metmap@orbifly.com




SOURCES & CREDITS :

   NOAA       Earth
Advisory